Gossett, Illinois
Current Conditions -  °F | °C
As of 11:55 AM on Monday 24 Nov 2014 (Local Time) from KCUL Reporting Station
Overcast Overcast  
Wind Chill: 37°   Ceiling: 2800
Heat Index: 45°   Visibility: 10mi
Dew Point: 36°   Wind: 16mph
Humidity: 71%   Direction: 250°WSW
Pressure: 29.71"   Gusts: 28mph
Location:  37.9739°N, 88.3193°W
Report Text: KCUL 241755Z AUTO 25014G24KT 10SM BKN028 OVC033 07/02 A2971 RMK AO2 T00700020 10094 20060
Loading
Personal Weather Stations






























Interactive Weather Map New forecast layout! Learn more

10-Day Weather Forecast

Advertisements
Track Severe Weather on mobile